Time;durP1;ratioP1;P1;durP2;ratioP2;P2;SDS_P1;SDS_P2;PMS_P1;PMS_P2;Temp;Humidity;BMP_temperature;BMP_pressure;BME280_temperature;BME280_humidity;BME280_pressure;Samples;Min_cycle;Max_cycle;Signal;HPM_P1;HPM_P2
2022/05/01 00:00:25;;;;;;;;;;;;;;;9.31;100.00;100668.63;5034003;28;19920;-59
2022/05/01 00:02:51;;;;;;;;;;;;;;;9.36;100.00;100664.09;5033819;28;19959;-59
2022/05/01 00:05:16;;;;;;;;;;;;;;;9.38;100.00;100667.63;5033754;28;19913;-59
2022/05/01 00:07:41;;;;;;;;;;;;;;;9.35;100.00;100665.03;5032985;28;19913;-59
2022/05/01 00:10:09;;;;;;;;;;;;;;;9.33;100.00;100658.84;5034029;28;19910;-59
2022/05/01 00:12:35;;;;;;;;;;;;;;;9.35;100.00;100667.69;5041953;28;20319;-59
2022/05/01 00:15:00;;;;;;;;;;;;;;;9.36;100.00;100661.44;5053913;28;19940;-59
2022/05/01 00:17:26;;;;;;;;;;;;;;;9.40;100.00;100664.94;5053407;28;19912;-59
2022/05/01 00:19:52;;;;;;;;;;;;;;;9.40;100.00;100664.94;5051126;28;19909;-59
2022/05/01 00:22:17;;;;;;;;;;;;;;;9.39;100.00;100668.50;5049969;28;19917;-59
2022/05/01 00:24:42;;;;;;;;;;;;;;;9.44;100.00;100664.00;5053470;28;20518;-59
2022/05/01 00:27:08;;;;;;;;;;;;;;;9.54;100.00;100663.78;5053340;28;19908;-59
2022/05/01 00:29:34;;;;;;;;;;;;;;;9.62;100.00;100656.53;5053704;28;20335;-59
2022/05/01 00:31:59;;;;;;;;;;;;;;;9.73;100.00;100659.91;5053031;28;19943;-59
2022/05/01 00:37:09;;;;;;;;;;;;;;;9.77;100.00;100658.91;5053266;28;20307;-59
2022/05/01 00:39:34;;;;;;;;;;;;;;;9.77;100.00;100661.56;5053446;28;19912;-59
2022/05/01 00:42:00;;;;;;;;;;;;;;;9.75;100.00;100659.88;5053222;28;20003;-59
2022/05/01 00:44:25;;;;;;;;;;;;;;;9.80;100.00;100655.34;5052959;28;19952;-59
2022/05/01 00:46:52;;;;;;;;;;;;;;;9.90;100.00;100657.78;5053181;28;19927;-59
2022/05/01 00:49:17;;;;;;;;;;;;;;;9.96;100.00;100652.34;5053296;28;19919;-59
2022/05/01 00:51:52;;;;;;;;;;;;;;;10.00;100.00;100653.19;5048946;28;19909;-59
2022/05/01 00:54:18;;;;;;;;;;;;;;;10.04;100.00;100645.09;5033189;28;20414;-59
2022/05/01 00:56:45;;;;;;;;;;;;;;;10.09;100.00;100653.00;5032839;28;19909;-59
2022/05/01 00:59:11;;;;;;;;;;;;;;;10.24;100.00;100644.72;5033069;28;20356;-59
2022/05/01 01:01:36;;;;;;;;;;;;;;;10.27;100.00;100644.66;5049084;28;19908;-59
2022/05/01 01:04:02;;;;;;;;;;;;;;;10.32;100.00;100646.31;5052991;28;19917;-59
2022/05/01 01:06:29;;;;;;;;;;;;;;;10.35;100.00;100645.34;5052770;28;19994;-59
2022/05/01 01:08:54;;;;;;;;;;;;;;;10.38;100.00;100646.16;5052692;28;19916;-59
2022/05/01 01:11:20;;;;;;;;;;;;;;;10.38;100.00;100635.53;5052500;28;19909;-59
2022/05/01 01:13:48;;;;;;;;;;;;;;;10.45;100.00;100644.25;5052618;28;19909;-59
2022/05/01 01:16:14;;;;;;;;;;;;;;;10.45;100.00;100639.81;5052408;28;19912;-59
2022/05/01 01:18:39;;;;;;;;;;;;;;;10.52;100.00;100633.47;5052529;28;19987;-59
2022/05/01 01:21:06;;;;;;;;;;;;;;;10.50;100.00;100637.94;5051719;28;19962;-59
2022/05/01 01:23:31;;;;;;;;;;;;;;;10.55;100.00;100644.03;5052536;28;20528;-59
2022/05/01 01:25:57;;;;;;;;;;;;;;;10.56;100.00;100640.44;5051197;28;19966;-59
2022/05/01 01:28:23;;;;;;;;;;;;;;;10.50;100.00;100642.38;5052272;28;19908;-59
2022/05/01 01:33:36;;;;;;;;;;;;;;;10.47;100.00;100635.34;5052086;28;19954;-59
2022/05/01 01:36:03;;;;;;;;;;;;;;;10.48;100.00;100630.88;5051973;28;19916;-59
2022/05/01 01:38:28;;;;;;;;;;;;;;;10.51;100.00;100636.13;5051935;28;19909;-59
2022/05/01 01:40:54;;;;;;;;;;;;;;;10.55;100.00;100637.81;5052464;28;19915;-59
2022/05/01 01:43:24;;;;;;;;;;;;;;;10.59;100.00;100640.38;5052098;28;19915;-59
2022/05/01 01:45:49;;;;;;;;;;;;;;;10.65;100.00;100636.69;5052010;28;20411;-59
2022/05/01 01:48:22;;;;;;;;;;;;;;;10.68;100.00;100627.75;5046777;28;19961;-59
2022/05/01 01:50:59;;;;;;;;;;;;;;;10.66;100.00;100627.78;5031994;28;19916;-59
2022/05/01 01:53:24;;;;;;;;;;;;;;;10.72;100.00;100624.13;5031047;28;19913;-59
2022/05/01 01:55:50;;;;;;;;;;;;;;;10.75;100.00;100618.72;5032164;28;19909;-59
2022/05/01 01:58:15;;;;;;;;;;;;;;;10.83;100.00;100622.97;5032059;28;20343;-59
2022/05/01 02:00:41;;;;;;;;;;;;;;;10.85;100.00;100625.59;5032132;28;19973;-59
2022/05/01 02:03:07;;;;;;;;;;;;;;;10.88;100.00;100626.38;5034789;28;20398;-59
2022/05/01 02:05:34;;;;;;;;;;;;;;;10.92;100.00;100621.88;5031946;28;20083;-59
2022/05/01 02:08:00;;;;;;;;;;;;;;;10.83;100.00;100622.97;5032150;28;19959;-59
2022/05/01 02:10:26;;;;;;;;;;;;;;;10.81;100.00;100616.78;5032383;28;19909;-59
2022/05/01 02:12:52;;;;;;;;;;;;;;;10.80;100.00;100611.50;5031703;28;19909;-59
2022/05/01 02:15:17;;;;;;;;;;;;;;;10.83;100.00;100617.63;5032285;28;19924;-60
2022/05/01 02:17:43;;;;;;;;;;;;;;;10.85;100.00;100622.94;5044893;28;20045;-60
2022/05/01 02:20:09;;;;;;;;;;;;;;;10.90;100.00;100621.03;5051180;28;20287;-60
2022/05/01 02:22:34;;;;;;;;;;;;;;;10.86;100.00;100622.00;5048700;28;19921;-59
2022/05/01 02:25:00;;;;;;;;;;;;;;;10.83;100.00;100622.97;5041510;28;19913;-59
2022/05/01 02:27:25;;;;;;;;;;;;;;;10.79;100.00;100618.63;5051655;28;19915;-59
2022/05/01 02:29:50;;;;;;;;;;;;;;;10.84;100.00;100618.53;5053169;28;19909;-60
2022/05/01 02:32:16;;;;;;;;;;;;;;;10.82;100.00;100613.25;5055640;28;19958;-59
2022/05/01 02:34:41;;;;;;;;;;;;;;;10.83;100.00;100611.44;5055522;28;19915;-59
2022/05/01 02:37:06;;;;;;;;;;;;;;;10.85;100.00;100612.28;5055576;28;19904;-59
2022/05/01 02:39:32;;;;;;;;;;;;;;;10.89;100.00;100613.97;5055544;28;19959;-59
2022/05/01 02:41:58;;;;;;;;;;;;;;;10.84;100.00;100606.06;5055359;28;19909;-59
2022/05/01 02:44:24;;;;;;;;;;;;;;;10.82;100.00;100609.69;5055332;28;19916;-59
2022/05/01 02:46:49;;;;;;;;;;;;;;;10.85;100.00;100612.28;5051602;28;20008;-59
2022/05/01 02:49:14;;;;;;;;;;;;;;;10.81;100.00;100607.97;5035418;28;19963;-59
2022/05/01 02:51:39;;;;;;;;;;;;;;;10.80;100.00;100608.84;5035479;28;19909;-59
2022/05/01 02:54:05;;;;;;;;;;;;;;;10.83;100.00;100608.78;5040338;28;20283;-59
2022/05/01 02:56:31;;;;;;;;;;;;;;;10.79;100.00;100599.13;5055324;28;19909;-59
2022/05/01 02:58:57;;;;;;;;;;;;;;;10.70;100.00;100607.31;5055101;28;19979;-59
2022/05/01 03:01:22;;;;;;;;;;;;;;;10.68;100.00;100599.38;5055298;28;20364;-59
2022/05/01 03:03:47;;;;;;;;;;;;;;;10.79;100.00;100601.78;5054987;28;19915;-59
2022/05/01 03:06:13;;;;;;;;;;;;;;;10.78;100.00;100598.25;5055008;28;19917;-59
2022/05/01 03:08:38;;;;;;;;;;;;;;;10.76;100.00;100596.56;5055190;28;19909;-59
2022/05/01 03:11:03;;;;;;;;;;;;;;;10.75;100.00;100597.44;5054778;28;19908;-59
2022/05/01 03:13:29;;;;;;;;;;;;;;;10.77;100.00;100590.31;5055016;28;19909;-59
2022/05/01 03:15:54;;;;;;;;;;;;;;;10.82;100.00;100588.41;5054927;28;19909;-59
2022/05/01 03:23:47;;;;;;;;;;;;;;;10.85;100.00;100583.00;5034523;28;20264;-60
2022/05/01 03:26:12;;;;;;;;;;;;;;;10.87;100.00;100579.41;5034676;28;19917;-60
2022/05/01 03:28:39;;;;;;;;;;;;;;;10.94;100.00;100577.47;5035001;28;19959;-60
2022/05/01 03:31:09;;;;;;;;;;;;;;;10.95;100.00;100584.53;5034160;28;19940;-60
2022/05/01 03:33:34;;;;;;;;;;;;;;;10.94;100.00;100574.81;5034434;28;19909;-60
2022/05/01 03:36:00;;;;;;;;;;;;;;;10.98;100.00;100579.13;5034559;28;19916;-60
2022/05/01 03:38:25;;;;;;;;;;;;;;;10.97;100.00;100580.06;5033308;28;19909;-59
2022/05/01 03:40:50;;;;;;;;;;;;;;;10.99;100.00;100578.22;5034341;28;19909;-59
2022/05/01 03:43:19;;;;;;;;;;;;;;;10.94;100.00;100582.78;5034487;28;20218;-59
2022/05/01 03:45:44;;;;;;;;;;;;;;;11.00;100.00;100585.28;5033964;28;19913;-59
2022/05/01 03:48:11;;;;;;;;;;;;;;;11.02;100.00;100583.47;5034339;28;19923;-59
2022/05/01 03:50:40;;;;;;;;;;;;;;;11.05;100.00;100586.94;5024006;28;20463;-59
2022/05/01 03:53:06;;;;;;;;;;;;;;;11.06;100.00;100585.13;5014582;28;20327;-59
2022/05/01 03:55:33;;;;;;;;;;;;;;;11.03;100.00;100578.09;5014380;28;19913;-59
2022/05/01 03:57:59;;;;;;;;;;;;;;;10.99;100.00;100580.88;5014220;28;19918;-59
2022/05/01 04:00:24;;;;;;;;;;;;;;;10.99;100.00;100580.88;5014461;28;19919;-59
2022/05/01 04:02:50;;;;;;;;;;;;;;;10.98;100.00;100579.13;5014290;28;20373;-59
2022/05/01 04:05:15;;;;;;;;;;;;;;;11.02;100.00;100572.81;5014242;28;19917;-59
2022/05/01 04:07:41;;;;;;;;;;;;;;;11.03;100.00;100582.53;5014197;28;19944;-59
2022/05/01 04:10:07;;;;;;;;;;;;;;;11.07;100.00;100584.22;5016668;28;19992;-59
2022/05/01 04:12:42;;;;;;;;;;;;;;;11.14;100.00;100576.03;5014187;28;20025;-59
2022/05/01 04:15:07;;;;;;;;;;;;;;;11.07;100.00;100579.75;5014310;28;19957;-59
2022/05/01 04:17:40;;;;;;;;;;;;;;;11.09;100.00;100582.38;5025494;28;19955;-59
2022/05/01 04:20:08;;;;;;;;;;;;;;;11.08;100.00;100575.31;5033661;28;19916;-59
2022/05/01 04:22:52;;;;;;;;;;;;;;;11.09;100.00;100585.03;5045857;28;19916;-59
2022/05/01 04:25:19;;;;;;;;;;;;;;;11.15;100.00;100587.56;5053344;28;19964;-59
2022/05/01 04:27:45;;;;;;;;;;;;;;;11.17;100.00;100580.41;5053692;28;19909;-59
2022/05/01 04:30:12;;;;;;;;;;;;;;;11.22;100.00;100583.84;5041069;28;19963;-59
2022/05/01 04:32:50;;;;;;;;;;;;;;;11.24;100.00;100590.84;5033735;28;19974;-59
2022/05/01 04:35:28;;;;;;;;;;;;;;;11.22;100.00;100582.03;5049479;28;19924;-59
2022/05/01 04:37:55;;;;;;;;;;;;;;;11.25;100.00;100589.09;5050930;28;19920;-59
2022/05/01 04:40:21;;;;;;;;;;;;;;;11.27;100.00;100585.44;5052215;28;19912;-59
2022/05/01 04:42:47;;;;;;;;;;;;;;;11.28;100.00;100589.00;5051942;28;19999;-59
2022/05/01 04:45:13;;;;;;;;;;;;;;;11.29;100.00;100588.94;5053304;28;19964;-59
2022/05/01 04:47:38;;;;;;;;;;;;;;;11.31;100.00;100594.22;5053002;28;19909;-59
2022/05/01 04:50:04;;;;;;;;;;;;;;;11.33;100.00;100592.41;5052861;28;19908;-59
2022/05/01 04:52:29;;;;;;;;;;;;;;;11.30;100.00;100589.84;5039776;28;19913;-59
2022/05/01 04:54:55;;;;;;;;;;;;;;;11.36;100.00;100592.31;5033315;28;19909;-59
2022/05/01 04:57:20;;;;;;;;;;;;;;;11.38;100.00;100598.50;5033103;28;19909;-60
2022/05/01 04:59:46;;;;;;;;;;;;;;;11.36;100.00;100597.66;5033186;28;19913;-60
2022/05/01 05:02:11;;;;;;;;;;;;;;;11.37;100.00;100589.63;5032719;28;19979;-60
2022/05/01 05:04:36;;;;;;;;;;;;;;;11.32;100.00;100602.19;5032921;28;19957;-60
2022/05/01 05:07:01;;;;;;;;;;;;;;;11.29;100.00;100602.25;5032942;28;19958;-60
2022/05/01 05:12:11;;;;;;;;;;;;;;;11.39;100.00;100594.91;5032910;28;20395;-60
2022/05/01 05:14:37;;;;;;;;;;;;;;;11.43;100.00;100604.56;5032908;28;19909;-60
2022/05/01 05:17:06;;;;;;;;;;;;;;;11.43;100.00;100607.22;5040233;28;19912;-59
2022/05/01 05:19:31;;;;;;;;;;;;;;;11.47;100.00;100606.22;5052530;28;19916;-59
2022/05/01 05:21:56;;;;;;;;;;;;;;;11.61;100.00;100604.94;5052193;28;20011;-59
2022/05/01 05:24:22;;;;;;;;;;;;;;;11.61;100.00;100604.06;5052749;28;19919;-59
2022/05/01 05:26:47;;;;;;;;;;;;;;;11.64;100.00;100610.22;5051986;28;19917;-59
2022/05/01 05:29:12;;;;;;;;;;;;;;;11.70;100.00;100609.16;5052150;28;20434;-59
2022/05/01 05:31:38;;;;;;;;;;;;;;;11.80;100.00;100603.56;5052204;28;20292;-59
2022/05/01 05:34:03;;;;;;;;;;;;;;;11.79;99.92;100614.25;5052167;28;20344;-59
2022/05/01 05:36:29;;;;;;;;;;;;;;;11.82;100.00;100611.50;5052531;28;19966;-59
2022/05/01 05:38:54;;;;;;;;;;;;;;;11.88;100.00;100612.19;5052271;28;19909;-59
2022/05/01 05:41:19;;;;;;;;;;;;;;;11.89;99.48;100615.75;5052123;28;19909;-59
2022/05/01 05:43:44;;;;;;;;;;;;;;;11.99;99.37;100606.56;5052373;28;19909;-59
2022/05/01 05:46:10;;;;;;;;;;;;;;;12.04;99.90;100611.75;5052045;28;20404;-59
2022/05/01 05:48:37;;;;;;;;;;;;;;;12.13;100.00;100603.47;5052238;28;19913;-60
2022/05/01 05:51:03;;;;;;;;;;;;;;;12.18;99.24;100614.88;5050479;28;19908;-60
2022/05/01 05:53:28;;;;;;;;;;;;;;;12.20;99.11;100611.28;5032783;28;19916;-60
2022/05/01 05:55:53;;;;;;;;;;;;;;;12.28;98.83;100613.69;5032074;28;20364;-60
2022/05/01 05:58:19;;;;;;;;;;;;;;;12.27;97.51;100618.19;5032261;28;20031;-60
2022/05/01 06:00:44;;;;;;;;;;;;;;;12.24;97.00;100618.25;5032138;28;19920;-60
2022/05/01 06:03:09;;;;;;;;;;;;;;;12.29;96.56;100624.31;5031744;28;19913;-60
2022/05/01 06:05:35;;;;;;;;;;;;;;;12.36;95.83;100617.88;5031359;28;19964;-60
2022/05/01 06:08:00;;;;;;;;;;;;;;;12.36;95.90;100620.56;5031976;28;19928;-60
2022/05/01 06:10:25;;;;;;;;;;;;;;;12.42;95.54;100624.84;5032095;28;19913;-60
2022/05/01 06:12:50;;;;;;;;;;;;;;;12.41;94.54;100626.63;5031842;28;20438;-60
2022/05/01 06:15:16;;;;;;;;;;;;;;;12.46;94.58;100622.03;5032209;28;19916;-60
2022/05/01 06:17:41;;;;;;;;;;;;;;;12.46;94.91;100629.16;5044426;28;19908;-60
2022/05/01 06:20:07;;;;;;;;;;;;;;;12.61;94.88;100624.22;5048034;28;20028;-60
2022/05/01 06:22:32;;;;;;;;;;;;;;;12.70;94.63;100621.25;5051564;28;20004;-60
2022/05/01 06:24:58;;;;;;;;;;;;;;;12.79;94.05;100623.66;5051893;28;20000;-60
2022/05/01 06:27:24;;;;;;;;;;;;;;;12.85;93.15;100620.78;5051779;28;20417;-59
2022/05/01 06:29:49;;;;;;;;;;;;;;;12.90;93.07;100626.84;5051241;28;19909;-60
2022/05/01 06:32:19;;;;;;;;;;;;;;;12.96;93.33;100620.44;5051438;28;19956;-60
2022/05/01 06:34:45;;;;;;;;;;;;;;;13.07;93.68;100623.66;5050430;28;19916;-60
2022/05/01 06:37:10;;;;;;;;;;;;;;;13.10;91.01;100624.44;5033565;28;19959;-60
2022/05/01 06:39:36;;;;;;;;;;;;;;;13.05;90.48;100630.84;5031796;28;20296;-60
2022/05/01 06:42:01;;;;;;;;;;;;;;;13.02;89.39;100631.81;5031816;28;19909;-60
2022/05/01 06:44:26;;;;;;;;;;;;;;;13.15;88.88;100626.94;5032339;28;19913;-60
2022/05/01 06:46:52;;;;;;;;;;;;;;;13.17;88.16;100628.66;5051013;28;19912;-59
2022/05/01 06:49:17;;;;;;;;;;;;;;;13.30;87.96;100626.44;5051522;28;19913;-59
2022/05/01 06:51:42;;;;;;;;;;;;;;;13.43;88.14;100621.53;5051402;28;20395;-59
2022/05/01 06:54:10;;;;;;;;;;;;;;;13.54;86.21;100624.72;5048488;28;19935;-59
2022/05/01 06:56:35;;;;;;;;;;;;;;;13.59;85.03;100628.97;5051402;28;19909;-59
2022/05/01 06:59:00;;;;;;;;;;;;;;;13.65;84.21;100622.53;5051417;28;19928;-59
2022/05/01 07:01:26;;;;;;;;;;;;;;;13.69;84.75;100625.03;5051480;28;19978;-59
2022/05/01 07:03:51;;;;;;;;;;;;;;;13.76;84.48;100626.56;5051511;28;19915;-59
2022/05/01 07:06:16;;;;;;;;;;;;;;;13.90;84.78;100632.31;5051265;28;20327;-59
2022/05/01 07:08:42;;;;;;;;;;;;;;;14.03;83.64;100630.94;5051228;28;19959;-59
2022/05/01 07:11:07;;;;;;;;;;;;;;;14.06;82.23;100624.59;5051169;28;20291;-59
2022/05/01 07:13:32;;;;;;;;;;;;;;;14.20;82.94;100622.28;5051332;28;19913;-59
2022/05/01 07:15:58;;;;;;;;;;;;;;;14.34;80.39;100625.31;5053123;28;19908;-59
2022/05/01 07:18:23;;;;;;;;;;;;;;;14.44;78.92;100626.72;5054113;28;19919;-59
2022/05/01 07:20:49;;;;;;;;;;;;;;;14.57;78.90;100627.09;5054913;28;19916;-59
2022/05/01 07:23:14;;;;;;;;;;;;;;;14.71;79.23;100625.63;5054378;28;19916;-59
2022/05/01 07:25:40;;;;;;;;;;;;;;;14.89;76.07;100627.56;5053347;28;19916;-59
2022/05/01 07:28:05;;;;;;;;;;;;;;;15.03;76.07;100613.63;5054112;28;19908;-59
2022/05/01 07:30:30;;;;;;;;;;;;;;;15.49;75.72;100618.81;5054939;28;19909;-59
2022/05/01 07:32:56;;;;;;;;;;;;;;;16.39;73.32;100612.00;5054554;28;19909;-60
2022/05/01 07:35:21;;;;;;;;;;;;;;;17.21;66.22;100614.28;5054696;28;19915;-60
2022/05/01 07:37:47;;;;;;;;;;;;;;;17.90;58.77;100604.44;5053905;28;19951;-59
2022/05/01 07:40:12;;;;;;;;;;;;;;;18.31;57.99;100606.66;5054312;28;20287;-59
2022/05/01 07:42:37;;;;;;;;;;;;;;;18.54;56.67;100601.81;5054341;28;19916;-59
2022/05/01 07:45:03;;;;;;;;;;;;;;;18.83;55.70;100596.53;5054501;28;19916;-59
2022/05/01 07:47:29;;;;;;;;;;;;;;;19.01;52.82;100606.25;5053876;28;19913;-59
2022/05/01 07:49:54;;;;;;;;;;;;;;;18.80;51.79;100607.50;5051738;28;20355;-60
2022/05/01 07:52:19;;;;;;;;;;;;;;;18.43;54.20;100604.25;5034312;28;19909;-60
2022/05/01 07:54:45;;;;;;;;;;;;;;;18.74;52.00;100594.38;5033227;28;19995;-60
2022/05/01 07:57:10;;;;;;;;;;;;;;;18.71;53.85;100599.94;5032745;28;19963;-60
2022/05/01 07:59:35;;;;;;;;;;;;;;;18.46;53.72;100596.00;5034459;28;19956;-60
2022/05/01 08:02:01;;;;;;;;;;;;;;;18.69;52.43;100603.66;5033982;28;19917;-60
2022/05/01 08:04:29;;;;;;;;;;;;;;;19.20;53.10;100587.19;5034197;28;20381;-60
2022/05/01 08:06:58;;;;;;;;;;;;;;;19.61;53.91;100593.72;5033667;28;19909;-60
2022/05/01 08:09:23;;;;;;;;;;;;;;;20.28;51.88;100590.47;5033924;28;19923;-60
2022/05/01 08:11:49;;;;;;;;;;;;;;;20.58;49.09;100593.91;5048507;28;19908;-60
2022/05/01 08:14:14;;;;;;;;;;;;;;;21.08;50.19;100593.34;5054214;28;19916;-60
2022/05/01 08:16:40;;;;;;;;;;;;;;;21.11;48.73;100587.72;5049232;28;20023;-60
2022/05/01 08:21:49;;;;;;;;;;;;;;;21.14;48.27;100582.97;5032878;28;19931;-60
2022/05/01 08:24:15;;;;;;;;;;;;;;;21.04;47.36;100583.69;5033739;28;20107;-60
2022/05/01 08:26:46;;;;;;;;;;;;;;;21.08;49.48;100582.50;5033319;28;19947;-60
2022/05/01 08:29:11;;;;;;;;;;;;;;;21.22;47.58;100582.47;5033593;28;19909;-60
2022/05/01 08:31:37;;;;;;;;;;;;;;;21.39;47.30;100584.88;5042016;28;19909;-60
2022/05/01 08:34:03;;;;;;;;;;;;;;;21.12;46.10;100584.06;5050165;28;20286;-60
2022/05/01 08:36:29;;;;;;;;;;;;;;;21.31;46.49;100589.97;5053333;28;19909;-60
2022/05/01 08:38:54;;;;;;;;;;;;;;;21.94;47.03;100586.41;5053644;28;20395;-60
2022/05/01 08:41:20;;;;;;;;;;;;;;;22.08;47.99;100588.16;5052478;28;20603;-60
2022/05/01 08:43:46;;;;;;;;;;;;;;;21.82;45.40;100592.72;5047133;28;19913;-60
2022/05/01 08:46:31;;;;;;;;;;;;;;;21.78;46.61;100584.88;5051625;28;20003;-60
2022/05/01 08:49:07;;;;;;;;;;;;;;;21.36;46.38;100593.22;5051589;28;20046;-60
2022/05/01 08:51:40;;;;;;;;;;;;;;;20.71;48.41;100590.31;5051700;28;19908;-60
2022/05/01 08:54:15;;;;;;;;;;;;;;;20.71;46.69;100584.03;5051683;28;19919;-60
2022/05/01 08:56:41;;;;;;;;;;;;;;;20.49;48.27;100584.53;5052457;28;19913;-60
2022/05/01 08:59:09;;;;;;;;;;;;;;;19.96;49.90;100589.75;5052856;28;19915;-60
2022/05/01 09:01:35;;;;;;;;;;;;;;;19.80;49.53;100583.56;5053035;28;19920;-59
2022/05/01 09:04:01;;;;;;;;;;;;;;;19.89;51.84;100579.41;5052702;28;19913;-59
2022/05/01 09:06:26;;;;;;;;;;;;;;;19.75;50.72;100579.41;5052830;28;20372;-59
2022/05/01 09:08:51;;;;;;;;;;;;;;;20.08;50.28;100583.56;5052834;28;19909;-59
2022/05/01 09:14:01;;;;;;;;;;;;;;;20.22;48.51;100585.44;5052725;28;20488;-59
2022/05/01 09:16:27;;;;;;;;;;;;;;;20.42;47.74;100583.22;5052646;28;20008;-60
2022/05/01 09:18:52;;;;;;;;;;;;;;;20.35;50.87;100579.16;5052609;28;19908;-60
2022/05/01 09:21:17;;;;;;;;;;;;;;;19.78;51.19;100580.06;5052430;28;20062;-60
2022/05/01 09:23:46;;;;;;;;;;;;;;;19.12;49.48;100592.16;5052570;28;19974;-60
2022/05/01 09:26:13;;;;;;;;;;;;;;;18.70;51.99;100587.41;5051997;28;19917;-59
2022/05/01 09:28:51;;;;;;;;;;;;;;;18.64;54.73;100589.56;5052208;28;19920;-59
2022/05/01 09:31:38;;;;;;;;;;;;;;;18.69;53.78;100591.06;5052362;28;19924;-59
2022/05/01 09:34:19;;;;;;;;;;;;;;;18.59;52.55;100589.84;5052267;28;20008;-59
2022/05/01 09:36:45;;;;;;;;;;;;;;;18.44;53.64;100584.44;5052171;28;20000;-59
2022/05/01 09:39:16;;;;;;;;;;;;;;;18.38;54.80;100594.56;5052480;28;20055;-59
2022/05/01 09:41:42;;;;;;;;;;;;;;;18.48;53.71;100592.28;5052187;28;19908;-59
2022/05/01 09:44:14;;;;;;;;;;;;;;;18.37;54.42;100595.53;5052535;28;19920;-59
2022/05/01 09:46:39;;;;;;;;;;;;;;;18.26;56.20;100597.94;5051821;28;20003;-60
2022/05/01 09:49:07;;;;;;;;;;;;;;;18.11;58.06;100597.91;5053118;28;19939;-60
2022/05/01 09:51:33;;;;;;;;;;;;;;;18.01;58.94;100597.53;5050233;28;19939;-60
2022/05/01 09:53:59;;;;;;;;;;;;;;;17.93;57.66;100591.69;5052604;28;19955;-60
2022/05/01 09:56:25;;;;;;;;;;;;;;;17.72;57.00;100595.53;5049085;28;19995;-60
2022/05/01 09:58:58;;;;;;;;;;;;;;;17.72;55.67;100594.66;5052181;28;19999;-60
2022/05/01 10:01:24;;;;;;;;;;;;;;;17.71;56.51;100601.00;5052203;28;19917;-59
2022/05/01 10:03:51;;;;;;;;;;;;;;;17.78;58.75;100595.19;5051959;28;20368;-59
2022/05/01 10:06:17;;;;;;;;;;;;;;;17.72;58.28;100595.53;5052194;28;19982;-59
2022/05/01 10:08:43;;;;;;;;;;;;;;;17.71;54.90;100598.28;5052047;28;19938;-59
2022/05/01 10:11:09;;;;;;;;;;;;;;;17.55;55.59;100592.81;5051917;28;19962;-59
2022/05/01 10:13:35;;;;;;;;;;;;;;;17.61;58.46;100589.81;5051976;28;20388;-60
2022/05/01 10:16:01;;;;;;;;;;;;;;;17.58;57.22;100597.16;5051935;28;20046;-60
2022/05/01 10:18:26;;;;;;;;;;;;;;;17.54;58.30;100591.09;5047877;28;20379;-60
2022/05/01 10:20:52;;;;;;;;;;;;;;;17.59;59.94;100589.03;5051922;28;19916;-60
2022/05/01 10:23:18;;;;;;;;;;;;;;;17.63;57.85;100590.59;5051263;28;19974;-60
2022/05/01 10:26:06;;;;;;;;;;;;;;;17.81;56.07;100586.06;5051751;28;19921;-60
2022/05/01 10:28:50;;;;;;;;;;;;;;;17.89;56.89;100581.19;5051724;28;19913;-59
2022/05/01 10:34:38;;;;;;;;;;;;;;;17.92;54.64;100576.47;5051840;28;19916;-60
2022/05/01 10:37:09;;;;;;;;;;;;;;;18.01;55.01;100576.00;5051627;28;19913;-60
2022/05/01 10:39:38;;;;;;;;;;;;;;;18.38;55.48;100570.31;5051302;28;19909;-60
2022/05/01 10:42:08;;;;;;;;;;;;;;;18.95;54.88;100571.56;5049878;28;19917;-60
2022/05/01 10:44:36;;;;;;;;;;;;;;;19.35;55.14;100564.75;5047945;28;19936;-60
2022/05/01 10:47:04;;;;;;;;;;;;;;;19.55;54.85;100569.81;5051243;28;19967;-60
2022/05/01 10:49:34;;;;;;;;;;;;;;;19.53;52.87;100560.94;5051155;28;19960;-60
2022/05/01 10:52:19;;;;;;;;;;;;;;;19.59;50.31;100563.25;5053505;28;19923;-60
2022/05/01 10:54:51;;;;;;;;;;;;;;;19.79;51.93;100553.94;5055265;28;19916;-60
2022/05/01 10:57:17;;;;;;;;;;;;;;;20.25;52.11;100550.13;5054983;28;19917;-60
2022/05/01 10:59:44;;;;;;;;;;;;;;;20.44;49.89;100551.56;5055240;28;19912;-60
2022/05/01 11:02:43;;;;;;;;;;;;;;;20.50;49.15;100548.47;5054913;28;19909;-60
2022/05/01 11:05:09;;;;;;;;;;;;;;;20.59;48.82;100545.13;5022942;28;19913;-60
2022/05/01 11:07:37;;;;;;;;;;;;;;;21.43;48.92;100543.13;5035070;28;19987;-60
2022/05/01 11:10:04;;;;;;;;;;;;;;;22.21;45.85;100536.69;5035166;28;20292;-59
2022/05/01 11:12:32;;;;;;;;;;;;;;;22.23;43.41;100538.28;5035091;28;19971;-59
2022/05/01 11:14:59;;;;;;;;;;;;;;;22.81;45.25;100541.22;5034919;28;19913;-60
2022/05/01 11:17:37;;;;;;;;;;;;;;;23.44;43.29;100525.47;5045594;28;19913;-60
2022/05/01 11:20:23;;;;;;;;;;;;;;;23.06;41.50;100526.66;5054865;28;19966;-60
2022/05/01 11:22:48;;;;;;;;;;;;;;;22.89;42.18;100527.94;5054722;28;19943;-60
2022/05/01 11:25:17;;;;;;;;;;;;;;;22.78;42.65;100537.88;5054252;28;19917;-60
2022/05/01 11:27:49;;;;;;;;;;;;;;;22.31;44.76;100530.47;5054828;28;20378;-60
2022/05/01 11:30:22;;;;;;;;;;;;;;;22.32;42.49;100515.97;5054111;28;19958;-60
2022/05/01 11:32:50;;;;;;;;;;;;;;;22.40;43.96;100521.69;5054654;28;19909;-60
2022/05/01 11:35:16;;;;;;;;;;;;;;;22.21;44.45;100521.25;5054432;28;19947;-61
2022/05/01 11:37:56;;;;;;;;;;;;;;;22.38;45.84;100515.50;5054060;28;20031;-60
2022/05/01 11:40:23;;;;;;;;;;;;;;;22.56;43.62;100514.19;5034522;28;19918;-60
2022/05/01 11:42:49;;;;;;;;;;;;;;;22.25;43.37;100487.56;5033259;28;19909;-60
2022/05/01 11:45:15;;;;;;;;;;;;;;;22.39;44.33;100511.78;5034231;28;19927;-60
2022/05/01 11:47:40;;;;;;;;;;;;;;;22.14;43.86;100509.16;5034226;28;19996;-60
2022/05/01 11:50:07;;;;;;;;;;;;;;;21.88;47.07;100508.31;5034189;28;19913;-60
2022/05/01 11:52:36;;;;;;;;;;;;;;;22.53;43.98;100502.69;5034368;28;20360;-60
2022/05/01 11:55:06;;;;;;;;;;;;;;;22.82;43.25;100498.66;5034229;28;20457;-60
2022/05/01 12:03:02;;;;;;;;;;;;;;;22.57;44.59;100502.34;5031514;28;19966;-60
2022/05/01 12:05:31;;;;;;;;;;;;;;;22.33;45.33;100495.13;5035941;28;20026;-60
2022/05/01 12:07:57;;;;;;;;;;;;;;;21.97;43.80;100499.53;5032485;28;20324;-60
2022/05/01 12:10:28;;;;;;;;;;;;;;;21.60;45.65;100489.53;5035109;28;19931;-60
2022/05/01 12:12:54;;;;;;;;;;;;;;;21.32;47.16;100483.44;5032146;28;19936;-60
2022/05/01 12:15:19;;;;;;;;;;;;;;;20.96;46.80;100494.91;5033828;28;19913;-60
2022/05/01 12:17:44;;;;;;;;;;;;;;;20.67;48.21;100485.19;5047029;28;20326;-60
2022/05/01 12:20:11;;;;;;;;;;;;;;;20.29;48.98;100485.00;5053674;28;19909;-59
2022/05/01 12:22:39;;;;;;;;;;;;;;;20.11;50.65;100478.03;5053214;28;19920;-59
2022/05/01 12:25:10;;;;;;;;;;;;;;;20.25;51.07;100478.03;5053490;28;20391;-59
2022/05/01 12:27:36;;;;;;;;;;;;;;;20.37;49.74;100474.56;5053228;28;19908;-59
2022/05/01 12:30:04;;;;;;;;;;;;;;;20.38;48.19;100476.28;5053211;28;19908;-59
2022/05/01 12:32:29;;;;;;;;;;;;;;;20.43;47.90;100473.25;5050829;28;19909;-59
2022/05/01 12:34:56;;;;;;;;;;;;;;;20.42;50.56;100467.00;5049553;28;20365;-59
2022/05/01 12:37:27;;;;;;;;;;;;;;;20.23;51.06;100466.47;5053296;28;20404;-59
2022/05/01 12:39:56;;;;;;;;;;;;;;;20.39;48.71;100475.31;5050239;28;19915;-59
2022/05/01 12:45:09;;;;;;;;;;;;;;;20.33;49.36;100470.31;5053349;28;19916;-59
2022/05/01 12:47:55;;;;;;;;;;;;;;;20.22;48.03;100467.44;5053154;28;19908;-59
2022/05/01 12:50:21;;;;;;;;;;;;;;;20.40;50.26;100466.25;5051752;28;20042;-59
2022/05/01 12:52:50;;;;;;;;;;;;;;;20.44;47.87;100464.22;5052722;28;20398;-59
2022/05/01 12:55:17;;;;;;;;;;;;;;;20.44;50.33;100461.50;5052974;28;19920;-59
2022/05/01 12:57:49;;;;;;;;;;;;;;;20.52;47.65;100465.44;5052869;28;19909;-59
2022/05/01 13:00:29;;;;;;;;;;;;;;;20.76;48.86;100461.09;5052885;28;19916;-60
2022/05/01 13:03:11;;;;;;;;;;;;;;;20.93;48.58;100451.84;5052568;28;19908;-60